createdAt,value
2023-02-22T00:01:35.444Z,9.10
2023-02-22T00:04:04.471Z,9.10
2023-02-22T00:06:31.551Z,9.00
2023-02-22T00:16:25.613Z,8.90
2023-02-22T00:23:48.510Z,8.80
2023-02-22T00:26:20.613Z,8.80
2023-02-22T00:28:52.640Z,8.60
2023-02-22T00:31:21.279Z,8.70
2023-02-22T00:41:12.457Z,8.60
2023-02-22T01:03:20.072Z,8.30
2023-02-22T01:08:16.711Z,8.20
2023-02-22T01:13:13.010Z,8.20
2023-02-22T01:15:42.895Z,8.10
2023-02-22T01:18:12.532Z,8.00
2023-02-22T01:25:35.792Z,7.90
2023-02-22T01:28:04.015Z,7.90
2023-02-22T01:30:33.319Z,7.80
2023-02-22T01:33:01.705Z,7.80
2023-02-22T01:35:30.971Z,7.70
2023-02-22T01:37:58.478Z,7.70
2023-02-22T01:40:29.598Z,7.60
2023-02-22T01:42:58.888Z,7.60
2023-02-22T01:45:32.618Z,7.60
2023-02-22T01:48:06.112Z,7.50
2023-02-22T01:50:37.158Z,7.50
2023-02-22T01:53:05.399Z,7.40
2023-02-22T01:55:34.549Z,7.40
2023-02-22T01:58:02.561Z,7.30
2023-02-22T02:03:06.432Z,7.20
2023-02-22T02:05:34.300Z,7.20
2023-02-22T02:08:09.583Z,7.20
2023-02-22T02:15:33.965Z,7.10
2023-02-22T02:18:08.884Z,7.00
2023-02-22T02:26:00.621Z,6.90
2023-02-22T02:28:53.333Z,6.90
2023-02-22T02:31:27.720Z,6.80
2023-02-22T02:34:06.059Z,6.80
2023-02-22T02:37:00.208Z,6.80
2023-02-22T02:39:37.821Z,6.70
2023-02-22T02:42:07.879Z,6.70
2023-02-22T02:44:48.600Z,6.70
2023-02-22T02:47:23.977Z,6.70
2023-02-22T02:50:14.048Z,6.70
2023-02-22T02:52:41.935Z,6.70
2023-02-22T02:55:11.287Z,6.60
2023-02-22T03:00:23.954Z,6.50
2023-02-22T03:03:26.008Z,7.70
2023-02-22T03:06:26.573Z,6.60
2023-02-22T03:09:25.362Z,6.60
2023-02-22T03:12:27.649Z,6.60
2023-02-22T03:15:21.973Z,6.60
2023-02-22T03:18:00.312Z,6.50
2023-02-22T03:20:48.570Z,6.50
2023-02-22T03:25:51.087Z,6.50
2023-02-22T03:28:21.995Z,6.50
2023-02-22T03:30:55.535Z,6.50
2023-02-22T03:33:41.055Z,6.40
2023-02-22T03:36:19.727Z,6.40
2023-02-22T03:38:48.433Z,6.40
2023-02-22T03:41:18.440Z,6.40
2023-02-22T03:43:50.341Z,6.30
2023-02-22T03:48:59.936Z,6.30
2023-02-22T03:56:47.016Z,6.10
2023-02-22T04:18:54.874Z,6.10
2023-02-22T04:41:13.060Z,6.20
2023-02-22T05:25:33.464Z,6.30
2023-02-22T05:28:03.225Z,6.20
2023-02-22T05:30:35.641Z,6.30
2023-02-22T05:40:26.315Z,6.20
2023-02-22T05:45:23.921Z,8.80
2023-02-22T05:47:53.394Z,6.20
2023-02-22T05:50:21.312Z,6.10
2023-02-22T05:52:48.864Z,6.10
2023-02-22T05:55:17.898Z,6.10
2023-02-22T06:00:27.305Z,6.10
2023-02-22T06:03:14.279Z,6.10
2023-02-22T06:13:05.129Z,6.00
2023-02-22T06:18:00.142Z,6.10
2023-02-22T06:20:29.039Z,6.00
2023-02-22T06:22:57.680Z,6.10
2023-02-22T06:25:26.993Z,6.00
2023-02-22T06:30:23.745Z,6.00
2023-02-22T06:40:13.138Z,6.20
2023-02-22T06:47:39.823Z,6.30
2023-02-22T07:09:47.606Z,6.50
2023-02-22T07:46:50.268Z,7.30
2023-02-22T07:49:17.798Z,7.40
2023-02-22T07:56:45.056Z,7.60
2023-02-22T08:21:17.173Z,8.20
2023-02-22T08:26:15.600Z,8.40
2023-02-22T09:03:13.075Z,9.50
2023-02-22T09:10:35.224Z,9.80
2023-02-22T09:13:04.009Z,9.80
2023-02-22T09:20:26.215Z,10.10
2023-02-22T09:27:50.010Z,10.20
2023-02-22T09:30:26.871Z,10.30
2023-02-22T09:32:55.924Z,10.40
2023-02-22T09:38:00.011Z,10.50
2023-02-22T09:40:30.303Z,10.60
2023-02-22T09:43:31.144Z,10.70
2023-02-22T09:46:19.205Z,10.70
2023-02-22T09:49:19.457Z,10.80
2023-02-22T09:51:58.656Z,10.90
2023-02-22T09:54:34.235Z,11.00
2023-02-22T09:57:05.536Z,11.00
2023-02-22T09:59:39.464Z,11.10
2023-02-22T10:02:30.081Z,11.10
2023-02-22T10:05:17.734Z,11.20
2023-02-22T10:07:52.266Z,11.20
2023-02-22T10:10:22.048Z,11.30
2023-02-22T10:13:05.897Z,11.30
2023-02-22T10:15:42.404Z,11.40
2023-02-22T10:18:42.476Z,11.40
2023-02-22T10:21:36.898Z,11.50
2023-02-22T10:24:13.672Z,11.50
2023-02-22T10:26:44.047Z,11.60
2023-02-22T10:31:44.041Z,11.70
2023-02-22T10:34:41.142Z,11.70
2023-02-22T10:37:21.347Z,11.80
2023-02-22T10:39:49.898Z,11.90
2023-02-22T10:47:16.599Z,12.10
2023-02-22T10:49:49.797Z,12.10
2023-02-22T10:52:27.234Z,12.10
2023-02-22T10:55:13.750Z,12.20
2023-02-22T10:57:44.195Z,12.30
2023-02-22T11:00:19.621Z,12.30
2023-02-22T11:03:16.555Z,12.30
2023-02-22T11:08:20.536Z,12.40
2023-02-22T11:10:52.611Z,12.50
2023-02-22T11:18:25.040Z,12.60
2023-02-22T11:21:00.968Z,12.60
2023-02-22T11:26:11.296Z,12.70
2023-02-22T11:28:49.864Z,12.70
2023-02-22T11:31:23.282Z,12.80
2023-02-22T11:34:01.187Z,12.80
2023-02-22T11:36:42.423Z,12.90
2023-02-22T11:39:34.552Z,12.90
2023-02-22T11:42:28.065Z,13.20
2023-02-22T11:45:24.700Z,13.10
2023-02-22T11:50:49.840Z,13.20
2023-02-22T11:53:38.053Z,13.30
2023-02-22T11:56:38.217Z,13.20
2023-02-22T11:59:29.682Z,13.20
2023-02-22T12:02:19.490Z,13.30
2023-02-22T12:05:01.726Z,13.30
2023-02-22T12:07:48.566Z,13.30
2023-02-22T12:10:26.722Z,13.30
2023-02-22T12:13:17.090Z,13.30
2023-02-22T12:15:56.724Z,13.30
2023-02-22T12:18:45.298Z,13.40
2023-02-22T12:21:16.802Z,13.30
2023-02-22T12:24:16.396Z,13.30
2023-02-22T12:26:50.410Z,13.40
2023-02-22T12:29:41.467Z,13.30
2023-02-22T12:32:24.195Z,13.30
2023-02-22T12:34:57.425Z,13.40
2023-02-22T12:37:29.807Z,13.40
2023-02-22T12:42:33.956Z,16.20
2023-02-22T12:45:08.294Z,13.40
2023-02-22T12:47:49.025Z,13.40
2023-02-22T12:50:21.079Z,13.40
2023-02-22T12:53:01.580Z,13.30
2023-02-22T12:55:39.107Z,13.40
2023-02-22T12:58:31.221Z,13.30
2023-02-22T13:01:12.025Z,13.40
2023-02-22T13:03:44.051Z,13.30
2023-02-22T13:06:35.388Z,13.30
2023-02-22T13:09:15.907Z,13.30
2023-02-22T13:11:55.455Z,13.30
2023-02-22T13:14:57.212Z,13.30
2023-02-22T13:17:51.061Z,13.20
2023-02-22T13:20:22.300Z,13.20
2023-02-22T13:23:02.821Z,13.30
2023-02-22T13:25:44.483Z,13.30
2023-02-22T13:30:45.447Z,13.40
2023-02-22T13:33:44.139Z,13.40
2023-02-22T13:36:38.497Z,13.40
2023-02-22T13:39:40.467Z,13.40
2023-02-22T13:42:50.651Z,13.40
2023-02-22T13:45:44.317Z,9.90
2023-02-22T13:48:37.388Z,13.50
2023-02-22T13:53:56.003Z,13.40
2023-02-22T13:56:24.924Z,13.60
2023-02-22T13:59:01.068Z,13.60
2023-02-22T14:01:39.772Z,13.60
2023-02-22T14:04:29.389Z,13.60
2023-02-22T14:07:18.992Z,13.70
2023-02-22T14:09:57.372Z,13.70
2023-02-22T14:12:29.893Z,13.70
2023-02-22T14:18:01.836Z,13.80
2023-02-22T14:20:37.081Z,13.70
2023-02-22T14:23:31.906Z,13.70
2023-02-22T14:26:28.514Z,13.70
2023-02-22T14:29:15.488Z,13.70
2023-02-22T14:34:18.981Z,13.70
2023-02-22T14:37:26.109Z,13.70
2023-02-22T14:40:02.079Z,13.70
2023-02-22T14:42:37.831Z,13.70
2023-02-22T14:45:17.073Z,13.70
2023-02-22T14:47:50.490Z,13.70
2023-02-22T14:50:41.907Z,13.70
2023-02-22T14:53:27.217Z,13.70
2023-02-22T14:56:06.986Z,13.70
2023-02-22T14:58:48.638Z,13.70
2023-02-22T15:01:44.465Z,13.70
2023-02-22T15:04:21.227Z,13.70
2023-02-22T15:06:49.517Z,13.70
2023-02-22T15:09:25.752Z,13.70
2023-02-22T15:12:12.861Z,13.70
2023-02-22T15:14:41.688Z,13.70
2023-02-22T15:17:16.180Z,13.70
2023-02-22T15:22:25.012Z,13.70
2023-02-22T15:25:05.222Z,13.60
2023-02-22T15:30:22.470Z,13.60
2023-02-22T15:35:32.808Z,13.60
2023-02-22T15:38:11.441Z,13.60
2023-02-22T15:40:42.918Z,13.60
2023-02-22T15:43:19.149Z,13.60
2023-02-22T15:51:10.533Z,13.50
2023-02-22T15:53:49.580Z,13.50
2023-02-22T15:56:19.782Z,13.50
2023-02-22T15:58:47.566Z,13.50
2023-02-22T16:01:18.868Z,13.40
2023-02-22T16:03:52.942Z,13.40
2023-02-22T16:06:29.447Z,13.50
2023-02-22T16:08:58.813Z,13.40
2023-02-22T16:14:19.598Z,13.40
2023-02-22T16:19:35.696Z,13.30
2023-02-22T16:22:04.850Z,13.20
2023-02-22T16:24:34.105Z,13.20
2023-02-22T16:27:22.668Z,13.10
2023-02-22T16:30:22.190Z,13.00
2023-02-22T16:37:55.038Z,12.90
2023-02-22T16:40:25.513Z,12.80
2023-02-22T16:45:21.549Z,12.70
2023-02-22T16:47:53.627Z,12.70
2023-02-22T16:50:22.025Z,12.70
2023-02-22T16:55:17.785Z,12.60
2023-02-22T17:00:16.080Z,12.50
2023-02-22T17:05:16.177Z,12.40
2023-02-22T17:10:17.641Z,12.30
2023-02-22T17:12:49.033Z,12.30
2023-02-22T17:15:41.906Z,12.20
2023-02-22T17:18:16.117Z,12.10
2023-02-22T17:20:44.952Z,12.10
2023-02-22T17:25:45.126Z,12.00
2023-02-22T17:33:09.566Z,11.80
2023-02-22T17:35:39.297Z,11.80
2023-02-22T17:38:06.638Z,11.70
2023-02-22T17:40:35.584Z,11.70
2023-02-22T17:45:30.223Z,11.60
2023-02-22T17:55:21.883Z,11.40
2023-02-22T17:57:56.822Z,11.40
2023-02-22T18:02:51.875Z,11.30
2023-02-22T18:05:19.160Z,11.30
2023-02-22T18:07:46.749Z,11.20
2023-02-22T18:15:10.717Z,11.20
2023-02-22T18:17:38.084Z,11.10
2023-02-22T18:20:11.600Z,11.10
2023-02-22T18:22:42.645Z,11.00
2023-02-22T18:25:10.740Z,10.90
2023-02-22T18:30:06.029Z,10.90
2023-02-22T18:42:23.668Z,10.80
2023-02-22T18:44:54.432Z,10.60
2023-02-22T18:47:23.009Z,10.80
2023-02-22T18:59:40.986Z,10.70
2023-02-22T19:02:13.989Z,10.60
2023-02-22T19:29:22.076Z,10.50
2023-02-22T19:34:21.695Z,10.50
2023-02-22T19:39:18.869Z,10.50
2023-02-22T19:54:05.303Z,10.30
2023-02-22T19:59:09.264Z,10.30
2023-02-22T20:01:37.225Z,10.20
2023-02-22T20:04:12.039Z,10.30
2023-02-22T20:06:41.545Z,10.30
2023-02-22T20:09:13.569Z,10.20
2023-02-22T20:21:33.015Z,10.20
2023-02-22T20:24:02.349Z,10.10
2023-02-22T20:26:30.868Z,10.10
2023-02-22T20:28:59.199Z,10.00
2023-02-22T20:31:26.586Z,10.00
2023-02-22T20:33:55.510Z,10.00
2023-02-22T20:38:54.021Z,9.90
2023-02-22T20:41:26.836Z,9.80
2023-02-22T20:43:55.545Z,9.80
2023-02-22T20:46:23.897Z,9.80
2023-02-22T20:48:55.552Z,9.80
2023-02-22T20:56:22.766Z,9.80
2023-02-22T21:01:19.468Z,9.80
2023-02-22T21:06:15.876Z,9.70
2023-02-22T21:08:50.693Z,9.70
2023-02-22T21:11:18.941Z,9.60
2023-02-22T21:16:27.527Z,9.50
2023-02-22T21:18:58.574Z,9.40
2023-02-22T21:21:26.362Z,9.40
2023-02-22T21:23:55.311Z,9.40
2023-02-22T21:26:26.391Z,9.40
2023-02-22T21:28:54.239Z,9.40
2023-02-22T21:31:23.987Z,9.40
2023-02-22T21:33:53.749Z,9.40
2023-02-22T21:36:25.104Z,9.40
2023-02-22T21:38:57.385Z,9.30
2023-02-22T21:41:27.757Z,9.30
2023-02-22T21:43:58.383Z,9.30
2023-02-22T21:46:27.366Z,9.20
2023-02-22T21:51:25.237Z,9.10
2023-02-22T21:53:54.261Z,9.10
2023-02-22T21:56:28.651Z,9.10
2023-02-22T21:59:02.796Z,9.00
2023-02-22T22:01:32.533Z,9.00
2023-02-22T22:06:29.137Z,8.90
2023-02-22T22:08:57.375Z,8.90
2023-02-22T22:13:56.945Z,8.80
2023-02-22T22:21:22.775Z,8.70
2023-02-22T22:23:50.578Z,8.60
2023-02-22T22:26:19.921Z,8.60
2023-02-22T22:28:52.197Z,8.50
2023-02-22T22:31:21.012Z,8.50
2023-02-22T22:36:17.297Z,8.40
2023-02-22T22:41:17.183Z,8.30
2023-02-22T22:46:16.591Z,8.30
2023-02-22T22:48:46.876Z,8.30
2023-02-22T22:51:19.753Z,8.10
2023-02-22T22:53:48.763Z,8.20
2023-02-22T22:56:21.707Z,8.20
2023-02-22T22:58:51.184Z,8.20
2023-02-22T23:01:26.609Z,8.20
2023-02-22T23:04:01.806Z,8.20
2023-02-22T23:06:32.939Z,8.20
2023-02-22T23:09:11.565Z,8.20
2023-02-22T23:11:44.408Z,8.20
2023-02-22T23:14:20.351Z,8.10
2023-02-22T23:16:48.200Z,8.20
2023-02-22T23:24:15.147Z,8.30
2023-02-22T23:39:12.025Z,8.30
2023-02-22T23:44:13.188Z,8.30
2023-02-22T23:46:41.291Z,8.30
2023-02-22T23:49:27.751Z,8.30
2023-02-22T23:57:05.263Z,8.50
2023-02-22T23:59:33.526Z,8.50
